createdAt,value
2022-10-26T00:00:52.450Z,4.05
2022-10-26T00:03:19.701Z,4.20
2022-10-26T00:05:46.449Z,5.03
2022-10-26T00:08:13.239Z,4.20
2022-10-26T00:10:40.280Z,4.55
2022-10-26T00:13:10.720Z,4.35
2022-10-26T00:15:41.419Z,3.88
2022-10-26T00:18:08.405Z,4.63
2022-10-26T00:20:35.031Z,4.30
2022-10-26T00:23:01.583Z,4.00
2022-10-26T00:25:28.132Z,3.60
2022-10-26T00:27:54.718Z,4.40
2022-10-26T00:30:21.533Z,3.92
2022-10-26T00:32:48.303Z,4.15
2022-10-26T00:35:22.958Z,4.00
2022-10-26T00:37:55.564Z,3.60
2022-10-26T00:40:26.989Z,3.58
2022-10-26T00:42:53.616Z,4.00
2022-10-26T00:45:26.496Z,3.53
2022-10-26T00:48:03.463Z,3.65
2022-10-26T00:50:36.940Z,3.72
2022-10-26T00:53:06.469Z,3.97
2022-10-26T00:55:37.336Z,4.00
2022-10-26T00:58:07.186Z,3.67
2022-10-26T01:00:34.086Z,3.85
2022-10-26T01:03:06.716Z,3.70
2022-10-26T01:05:35.619Z,3.72
2022-10-26T01:08:03.129Z,3.90
2022-10-26T01:10:30.523Z,3.47
2022-10-26T01:12:58.749Z,3.58
2022-10-26T01:15:44.669Z,4.10
2022-10-26T01:18:22.473Z,3.78
2022-10-26T01:21:02.666Z,3.75
2022-10-26T01:23:48.603Z,3.15
2022-10-26T01:26:53.394Z,3.70
2022-10-26T01:29:43.019Z,3.63
2022-10-26T01:32:18.478Z,3.97
2022-10-26T01:34:51.657Z,3.65
2022-10-26T01:37:24.633Z,3.75
2022-10-26T01:40:08.175Z,4.10
2022-10-26T01:42:37.484Z,4.05
2022-10-26T01:45:08.965Z,3.58
2022-10-26T01:47:37.960Z,3.90
2022-10-26T01:50:06.840Z,4.07
2022-10-26T01:52:33.698Z,4.28
2022-10-26T01:55:27.242Z,4.07
2022-10-26T01:58:00.888Z,3.72
2022-10-26T02:00:27.685Z,3.80
2022-10-26T02:03:16.124Z,4.25
2022-10-26T02:06:14.704Z,3.85
2022-10-26T02:09:08.822Z,3.35
2022-10-26T02:11:46.892Z,3.72
2022-10-26T02:14:30.079Z,3.67
2022-10-26T02:17:07.648Z,3.85
2022-10-26T02:19:42.868Z,3.70
2022-10-26T02:24:41.111Z,3.60
2022-10-26T02:27:12.445Z,3.40
2022-10-26T02:29:41.149Z,4.18
2022-10-26T02:32:09.002Z,3.55
2022-10-26T02:34:37.978Z,3.50
2022-10-26T02:37:05.908Z,3.47
2022-10-26T02:39:34.475Z,4.10
2022-10-26T02:42:04.587Z,3.75
2022-10-26T02:44:42.849Z,3.72
2022-10-26T02:47:09.772Z,3.53
2022-10-26T02:49:36.760Z,3.75
2022-10-26T02:52:19.696Z,3.45
2022-10-26T02:55:25.573Z,4.10
2022-10-26T02:57:57.272Z,4.03
2022-10-26T03:00:24.047Z,4.03
2022-10-26T03:02:59.726Z,4.05
2022-10-26T03:05:28.863Z,3.70
2022-10-26T03:07:56.184Z,3.80
2022-10-26T03:10:23.511Z,4.32
2022-10-26T03:12:50.620Z,3.72
2022-10-26T03:15:17.516Z,3.67
2022-10-26T03:17:44.251Z,3.70
2022-10-26T03:20:11.372Z,4.25
2022-10-26T03:22:37.963Z,3.85
2022-10-26T03:25:05.066Z,3.80
2022-10-26T03:27:31.686Z,3.65
2022-10-26T03:29:58.349Z,4.13
2022-10-26T03:32:24.891Z,4.15
2022-10-26T03:34:51.602Z,3.72
2022-10-26T03:37:18.241Z,3.80
2022-10-26T03:39:44.782Z,4.13
2022-10-26T03:42:11.427Z,3.53
2022-10-26T03:44:37.963Z,3.72
2022-10-26T03:47:04.781Z,3.78
2022-10-26T03:49:31.322Z,3.95
2022-10-26T03:51:57.860Z,3.67
2022-10-26T03:54:25.047Z,4.07
2022-10-26T03:56:55.100Z,3.97
2022-10-26T03:59:22.314Z,3.70
2022-10-26T04:01:51.620Z,3.38
2022-10-26T04:04:20.809Z,3.55
2022-10-26T04:06:47.478Z,3.72
2022-10-26T04:09:14.244Z,3.72
2022-10-26T04:11:40.757Z,3.38
2022-10-26T04:14:07.295Z,4.10
2022-10-26T04:16:33.971Z,3.90
2022-10-26T04:19:01.319Z,3.95
2022-10-26T04:21:28.130Z,4.03
2022-10-26T04:23:54.862Z,4.28
2022-10-26T04:26:21.446Z,4.22
2022-10-26T04:28:47.991Z,4.20
2022-10-26T04:31:14.661Z,4.13
2022-10-26T04:33:41.397Z,3.70
2022-10-26T04:36:08.404Z,4.10
2022-10-26T04:38:34.980Z,3.72
2022-10-26T04:41:01.660Z,3.83
2022-10-26T04:43:28.348Z,4.03
2022-10-26T04:45:56.457Z,3.63
2022-10-26T04:50:59.734Z,3.83
2022-10-26T04:53:26.608Z,3.75
2022-10-26T04:56:00.651Z,3.72
2022-10-26T04:58:28.546Z,4.20
2022-10-26T05:00:55.476Z,3.67
2022-10-26T05:03:22.161Z,3.50
2022-10-26T05:05:48.758Z,4.30
2022-10-26T05:08:16.196Z,3.47
2022-10-26T05:10:43.110Z,2.88
2022-10-26T05:13:10.562Z,2.95
2022-10-26T05:15:37.123Z,3.75
2022-10-26T05:18:05.748Z,3.40
2022-10-26T05:20:35.081Z,3.65
2022-10-26T05:23:06.851Z,4.28
2022-10-26T05:25:36.213Z,3.90
2022-10-26T05:28:05.976Z,3.60
2022-10-26T05:30:32.794Z,3.35
2022-10-26T05:33:02.979Z,3.80
2022-10-26T05:35:30.146Z,3.90
2022-10-26T05:37:56.879Z,3.30
2022-10-26T05:40:24.204Z,3.70
2022-10-26T05:42:51.511Z,3.60
2022-10-26T05:45:18.599Z,3.47
2022-10-26T05:47:46.531Z,3.45
2022-10-26T05:50:13.865Z,3.70
2022-10-26T05:52:46.140Z,3.88
2022-10-26T05:55:15.468Z,3.50
2022-10-26T05:57:44.195Z,3.83
2022-10-26T06:00:22.890Z,4.00
2022-10-26T06:02:58.628Z,4.28
2022-10-26T06:05:29.208Z,3.67
2022-10-26T06:07:55.927Z,3.97
2022-10-26T06:10:22.825Z,3.72
2022-10-26T06:12:50.204Z,3.47
2022-10-26T06:15:20.204Z,3.50
2022-10-26T06:17:55.763Z,3.65
2022-10-26T06:20:34.616Z,4.47
2022-10-26T06:23:32.591Z,3.83
2022-10-26T06:26:32.812Z,3.53
2022-10-26T06:29:20.736Z,4.03
2022-10-26T06:31:48.108Z,3.60
2022-10-26T06:34:22.850Z,3.40
2022-10-26T06:36:50.616Z,3.72
2022-10-26T06:39:18.949Z,3.95
2022-10-26T06:41:46.069Z,4.45
2022-10-26T06:44:22.807Z,4.55
2022-10-26T06:47:05.721Z,4.78
2022-10-26T06:50:06.726Z,4.20
2022-10-26T06:52:42.851Z,4.30
2022-10-26T06:55:16.762Z,4.30
2022-10-26T06:57:44.132Z,4.45
2022-10-26T07:00:21.183Z,3.85
2022-10-26T07:02:49.435Z,3.95
2022-10-26T07:05:16.584Z,4.50
2022-10-26T07:07:45.143Z,4.75
2022-10-26T07:10:12.963Z,5.80
2022-10-26T07:12:39.631Z,4.30
2022-10-26T07:17:49.742Z,4.20
2022-10-26T07:20:20.114Z,4.68
2022-10-26T07:22:57.665Z,4.35
2022-10-26T07:25:25.928Z,4.82
2022-10-26T07:27:56.556Z,4.35
2022-10-26T07:30:23.105Z,4.32
2022-10-26T07:32:49.979Z,4.70
2022-10-26T07:35:16.867Z,4.32
2022-10-26T07:37:43.506Z,4.55
2022-10-26T07:40:10.476Z,5.50
2022-10-26T07:42:37.382Z,4.72
2022-10-26T07:45:04.793Z,4.60
2022-10-26T07:47:31.430Z,5.10
2022-10-26T07:49:57.980Z,5.75
2022-10-26T07:52:24.672Z,5.70
2022-10-26T07:54:51.361Z,5.55
2022-10-26T07:57:18.004Z,5.30
2022-10-26T07:59:44.685Z,4.78
2022-10-26T08:02:11.466Z,5.10
2022-10-26T08:04:38.094Z,4.50
2022-10-26T08:07:04.726Z,5.30
2022-10-26T08:09:31.243Z,5.00
2022-10-26T08:11:57.882Z,4.38
2022-10-26T08:14:24.454Z,5.10
2022-10-26T08:16:52.292Z,4.70
2022-10-26T08:19:19.387Z,5.32
2022-10-26T08:21:45.920Z,4.78
2022-10-26T08:24:12.576Z,4.35
2022-10-26T08:26:39.269Z,5.15
2022-10-26T08:29:05.886Z,4.03
2022-10-26T08:31:32.518Z,4.35
2022-10-26T08:33:59.624Z,4.40
2022-10-26T08:36:27.832Z,5.15
2022-10-26T08:38:54.568Z,4.32
2022-10-26T08:41:37.849Z,4.70
2022-10-26T08:44:29.283Z,4.40
2022-10-26T08:47:00.989Z,4.22
2022-10-26T08:49:32.499Z,3.72
2022-10-26T08:52:01.961Z,3.40
2022-10-26T08:54:46.421Z,3.90
2022-10-26T08:57:18.965Z,3.65
2022-10-26T09:00:02.284Z,3.75
2022-10-26T09:02:29.161Z,4.00
2022-10-26T09:04:59.259Z,3.95
2022-10-26T09:08:07.246Z,3.20
2022-10-26T09:10:41.298Z,3.53
2022-10-26T09:13:43.369Z,3.70
2022-10-26T09:16:36.855Z,3.20
2022-10-26T09:19:34.952Z,3.35
2022-10-26T09:22:22.768Z,3.20
2022-10-26T09:24:57.552Z,3.55
2022-10-26T09:27:31.397Z,3.60
2022-10-26T09:30:03.542Z,3.35
2022-10-26T09:32:38.404Z,3.97
2022-10-26T09:35:25.852Z,3.65
2022-10-26T09:38:06.150Z,3.75
2022-10-26T09:40:47.244Z,3.67
2022-10-26T09:43:24.491Z,3.80
2022-10-26T09:45:52.641Z,4.00
2022-10-26T09:48:34.294Z,4.25
2022-10-26T09:51:03.743Z,4.00
2022-10-26T09:53:32.099Z,4.07
2022-10-26T09:56:08.429Z,4.35
2022-10-26T09:58:43.743Z,4.00
2022-10-26T10:01:38.134Z,4.15
2022-10-26T10:04:13.735Z,4.28
2022-10-26T10:06:41.088Z,3.90
2022-10-26T10:09:27.011Z,4.53
2022-10-26T10:11:58.877Z,4.50
2022-10-26T10:14:40.119Z,4.40
2022-10-26T10:17:22.580Z,3.83
2022-10-26T10:19:49.892Z,4.07
2022-10-26T10:22:18.482Z,3.90
2022-10-26T10:24:59.915Z,3.45
2022-10-26T10:27:28.144Z,3.33
2022-10-26T10:29:59.879Z,3.55
2022-10-26T10:32:35.404Z,3.40
2022-10-26T10:35:23.598Z,3.47
2022-10-26T10:37:51.600Z,3.20
2022-10-26T10:40:21.593Z,2.88
2022-10-26T10:42:50.081Z,2.85
2022-10-26T10:45:21.611Z,2.90
2022-10-26T10:48:14.972Z,2.88
2022-10-26T10:51:14.591Z,2.65
2022-10-26T10:53:49.181Z,2.67
2022-10-26T10:56:35.679Z,2.72
2022-10-26T10:59:17.803Z,3.30
2022-10-26T11:02:14.125Z,2.90
2022-10-26T11:05:22.074Z,2.70
2022-10-26T11:08:03.609Z,3.15
2022-10-26T11:10:40.660Z,3.00
2022-10-26T11:13:20.035Z,2.75
2022-10-26T11:15:50.519Z,2.90
2022-10-26T11:18:45.007Z,3.30
2022-10-26T11:21:23.796Z,3.00
2022-10-26T11:24:10.952Z,2.92
2022-10-26T11:26:46.693Z,2.88
2022-10-26T11:29:51.005Z,3.58
2022-10-26T11:32:25.252Z,3.05
2022-10-26T11:35:13.940Z,2.70
2022-10-26T11:37:52.629Z,3.17
2022-10-26T11:40:48.086Z,3.00
2022-10-26T11:43:35.904Z,3.33
2022-10-26T11:46:12.792Z,3.17
2022-10-26T11:49:05.709Z,2.90
2022-10-26T11:51:41.804Z,2.70
2022-10-26T11:54:42.591Z,2.90
2022-10-26T11:57:11.152Z,2.60
2022-10-26T11:59:47.824Z,2.58
2022-10-26T12:02:25.500Z,2.55
2022-10-26T12:05:07.981Z,2.78
2022-10-26T12:07:39.189Z,2.92
2022-10-26T12:10:13.880Z,2.75
2022-10-26T12:12:47.656Z,2.70
2022-10-26T12:18:54.632Z,2.50
2022-10-26T12:21:23.550Z,2.30
2022-10-26T12:23:57.843Z,2.85
2022-10-26T12:26:24.543Z,2.87
2022-10-26T12:29:03.048Z,2.80
2022-10-26T12:31:33.315Z,3.17
2022-10-26T12:34:00.805Z,2.78
2022-10-26T12:36:50.336Z,3.53
2022-10-26T12:39:30.725Z,3.65
2022-10-26T12:42:06.352Z,3.10
2022-10-26T12:44:42.610Z,3.25
2022-10-26T12:47:10.739Z,2.65
2022-10-26T12:49:59.976Z,2.83
2022-10-26T12:52:28.947Z,2.53
2022-10-26T12:55:03.347Z,2.72
2022-10-26T12:57:48.151Z,3.20
2022-10-26T13:00:18.312Z,2.95
2022-10-26T13:03:26.062Z,2.75
2022-10-26T13:06:17.162Z,2.67
2022-10-26T13:08:45.812Z,2.42
2022-10-26T13:11:35.124Z,2.80
2022-10-26T13:14:08.540Z,3.25
2022-10-26T13:16:35.285Z,2.67
2022-10-26T13:19:02.105Z,3.72
2022-10-26T13:21:28.905Z,2.80
2022-10-26T13:23:58.191Z,2.92
2022-10-26T13:26:26.849Z,2.90
2022-10-26T13:28:53.356Z,2.92
2022-10-26T13:31:41.434Z,3.55
2022-10-26T13:34:19.305Z,3.17
2022-10-26T13:36:53.300Z,3.05
2022-10-26T13:39:25.761Z,3.05
2022-10-26T13:41:54.716Z,2.53
2022-10-26T13:44:35.535Z,2.72
2022-10-26T13:47:21.870Z,2.83
2022-10-26T13:49:54.325Z,2.63
2022-10-26T13:52:28.804Z,2.50
2022-10-26T13:55:01.104Z,2.97
2022-10-26T13:57:38.821Z,2.10
2022-10-26T14:00:15.944Z,2.65
2022-10-26T14:02:44.345Z,2.53
2022-10-26T14:05:14.299Z,2.63
2022-10-26T14:07:43.459Z,2.53
2022-10-26T14:10:26.664Z,2.05
2022-10-26T14:12:54.075Z,1.90
2022-10-26T14:15:30.627Z,2.60
2022-10-26T14:17:59.581Z,2.50
2022-10-26T14:20:27.636Z,2.38
2022-10-26T14:22:54.817Z,4.43
2022-10-26T14:25:31.082Z,3.10
2022-10-26T14:28:28.541Z,2.40
2022-10-26T14:31:10.071Z,2.50
2022-10-26T14:33:36.747Z,2.15
2022-10-26T14:36:03.840Z,2.17
2022-10-26T14:38:47.477Z,2.58
2022-10-26T14:41:16.658Z,2.40
2022-10-26T14:43:44.584Z,2.03
2022-10-26T14:46:19.705Z,2.20
2022-10-26T14:51:25.181Z,2.45
2022-10-26T14:53:53.870Z,2.25
2022-10-26T14:56:35.600Z,2.30
2022-10-26T14:59:19.043Z,2.60
2022-10-26T15:02:11.722Z,2.60
2022-10-26T15:04:40.742Z,2.58
2022-10-26T15:07:11.389Z,2.47
2022-10-26T15:09:42.932Z,2.53
2022-10-26T15:12:21.329Z,2.50
2022-10-26T15:14:48.506Z,2.60
2022-10-26T15:17:27.476Z,26.40
2022-10-26T15:19:55.245Z,6.22
2022-10-26T15:22:31.824Z,12.57
2022-10-26T15:25:02.205Z,9.25
2022-10-26T15:27:28.805Z,6.05
2022-10-26T15:30:14.172Z,3.50
2022-10-26T15:32:40.927Z,4.03
2022-10-26T15:35:15.496Z,3.95
2022-10-26T15:37:42.168Z,2.95
2022-10-26T15:40:09.512Z,2.70
2022-10-26T15:42:38.093Z,2.78
2022-10-26T15:45:18.055Z,2.53
2022-10-26T15:47:44.849Z,2.83
2022-10-26T15:50:17.135Z,2.60
2022-10-26T15:52:46.739Z,3.10
2022-10-26T15:55:17.144Z,3.15
2022-10-26T15:57:43.763Z,3.10
2022-10-26T16:00:15.844Z,3.00
2022-10-26T16:02:44.717Z,3.30
2022-10-26T16:05:13.180Z,3.30
2022-10-26T16:07:43.001Z,3.42
2022-10-26T16:10:30.114Z,4.07
2022-10-26T16:12:56.770Z,4.63
2022-10-26T16:15:24.875Z,4.68
2022-10-26T16:17:52.161Z,5.55
2022-10-26T16:20:27.193Z,5.45
2022-10-26T16:22:54.629Z,4.28
2022-10-26T16:25:24.542Z,4.30
2022-10-26T16:27:52.316Z,4.25
2022-10-26T16:30:19.865Z,6.40
2022-10-26T16:32:46.665Z,6.20
2022-10-26T16:35:14.211Z,7.38
2022-10-26T16:37:41.032Z,7.03
2022-10-26T16:40:08.607Z,7.03
2022-10-26T16:42:35.499Z,5.93
2022-10-26T16:45:03.119Z,10.38
2022-10-26T16:47:35.560Z,11.07
2022-10-26T16:50:03.480Z,8.75
2022-10-26T16:52:30.383Z,5.75
2022-10-26T16:54:56.997Z,3.97
2022-10-26T16:57:25.364Z,4.30
2022-10-26T16:59:52.314Z,4.97
2022-10-26T17:02:20.533Z,4.40
2022-10-26T17:04:47.390Z,4.32
2022-10-26T17:07:13.960Z,4.35
2022-10-26T17:09:40.608Z,4.47
2022-10-26T17:12:07.487Z,4.43
2022-10-26T17:14:34.406Z,4.45
2022-10-26T17:17:01.336Z,4.05
2022-10-26T17:19:27.948Z,4.05
2022-10-26T17:21:54.762Z,4.22
2022-10-26T17:24:21.444Z,4.40
2022-10-26T17:26:48.063Z,4.40
2022-10-26T17:29:14.903Z,4.03
2022-10-26T17:31:44.952Z,3.78
2022-10-26T17:34:13.686Z,4.55
2022-10-26T17:36:40.390Z,4.40
2022-10-26T17:39:06.946Z,4.30
2022-10-26T17:41:33.601Z,6.30
2022-10-26T17:44:00.183Z,5.20
2022-10-26T17:46:27.320Z,5.13
2022-10-26T17:48:58.489Z,4.93
2022-10-26T17:51:26.529Z,5.60
2022-10-26T17:53:54.209Z,5.95
2022-10-26T17:56:26.807Z,5.95
2022-10-26T17:58:55.679Z,6.95
2022-10-26T18:01:23.071Z,7.00
2022-10-26T18:03:50.757Z,6.90
2022-10-26T18:06:17.844Z,7.05
2022-10-26T18:08:45.107Z,7.95
2022-10-26T18:11:22.535Z,7.00
2022-10-26T18:13:53.708Z,7.05
2022-10-26T18:16:22.192Z,6.70
2022-10-26T18:18:52.699Z,9.65
2022-10-26T18:21:21.069Z,10.13
2022-10-26T18:23:47.782Z,10.48
2022-10-26T18:26:16.989Z,10.30
2022-10-26T18:28:44.046Z,10.45
2022-10-26T18:31:13.002Z,8.77
2022-10-26T18:33:40.376Z,8.00
2022-10-26T18:36:17.758Z,7.30
2022-10-26T18:38:46.198Z,6.72
2022-10-26T18:41:14.749Z,7.72
2022-10-26T18:43:43.286Z,7.70
2022-10-26T18:46:14.089Z,12.70
2022-10-26T18:48:43.354Z,17.05
2022-10-26T18:51:14.794Z,12.55
2022-10-26T18:53:42.868Z,11.65
2022-10-26T18:56:18.517Z,11.07
2022-10-26T18:58:51.514Z,10.07
2022-10-26T19:01:23.684Z,9.23
2022-10-26T19:03:59.251Z,8.25
2022-10-26T19:06:31.358Z,8.43
2022-10-26T19:08:58.838Z,7.45
2022-10-26T19:11:27.815Z,7.75
2022-10-26T19:13:54.613Z,7.57
2022-10-26T19:16:40.710Z,7.15
2022-10-26T19:19:10.515Z,7.78
2022-10-26T19:21:37.136Z,7.80
2022-10-26T19:24:04.376Z,6.40
2022-10-26T19:26:37.800Z,6.13
2022-10-26T19:29:07.600Z,5.32
2022-10-26T19:31:35.726Z,5.65
2022-10-26T19:34:03.588Z,5.30
2022-10-26T19:36:31.768Z,4.47
2022-10-26T19:38:59.512Z,4.47
2022-10-26T19:41:28.059Z,4.53
2022-10-26T19:43:57.116Z,4.75
2022-10-26T19:46:25.874Z,5.05
2022-10-26T19:48:57.969Z,4.90
2022-10-26T19:51:26.365Z,4.63
2022-10-26T19:53:53.113Z,4.80
2022-10-26T19:56:21.539Z,4.75
2022-10-26T19:58:50.501Z,6.13
2022-10-26T20:01:17.928Z,6.35
2022-10-26T20:03:45.771Z,7.32
2022-10-26T20:06:13.243Z,5.95
2022-10-26T20:08:41.811Z,7.35
2022-10-26T20:11:13.084Z,9.25
2022-10-26T20:13:43.379Z,8.68
2022-10-26T20:16:11.924Z,8.75
2022-10-26T20:18:41.225Z,7.63
2022-10-26T20:21:13.941Z,7.82
2022-10-26T20:23:40.936Z,8.13
2022-10-26T20:26:07.768Z,8.57
2022-10-26T20:28:34.561Z,8.40
2022-10-26T20:31:01.250Z,8.32
2022-10-26T20:33:27.993Z,8.02
2022-10-26T20:35:59.065Z,8.10
2022-10-26T20:38:26.592Z,8.50
2022-10-26T20:40:59.412Z,8.00
2022-10-26T20:43:27.467Z,9.10
2022-10-26T20:45:55.955Z,8.93
2022-10-26T20:48:22.749Z,9.13
2022-10-26T20:51:04.578Z,8.90
2022-10-26T20:53:47.249Z,8.82
2022-10-26T20:56:24.976Z,8.68
2022-10-26T20:58:56.873Z,8.90
2022-10-26T21:01:32.023Z,8.40
2022-10-26T21:04:01.213Z,8.52
2022-10-26T21:06:28.365Z,8.60
2022-10-26T21:08:56.797Z,8.55
2022-10-26T21:11:25.122Z,8.00
2022-10-26T21:13:55.249Z,8.80
2022-10-26T21:16:23.090Z,7.95
2022-10-26T21:18:49.728Z,8.40
2022-10-26T21:21:17.377Z,7.55
2022-10-26T21:23:44.098Z,8.00
2022-10-26T21:26:10.860Z,7.68
2022-10-26T21:28:42.000Z,8.07
2022-10-26T21:31:10.772Z,7.55
2022-10-26T21:33:37.529Z,7.38
2022-10-26T21:36:06.564Z,7.10
2022-10-26T21:38:34.109Z,7.13
2022-10-26T21:41:04.246Z,7.47
2022-10-26T21:43:37.488Z,7.07
2022-10-26T21:46:04.520Z,7.75
2022-10-26T21:48:32.391Z,11.95
2022-10-26T21:51:04.917Z,10.95
2022-10-26T21:53:31.676Z,13.07
2022-10-26T21:56:06.433Z,11.70
2022-10-26T21:58:33.344Z,11.25
2022-10-26T22:01:08.684Z,10.75
2022-10-26T22:03:36.525Z,9.80
2022-10-26T22:06:05.311Z,8.63
2022-10-26T22:08:32.275Z,8.75
2022-10-26T22:10:58.991Z,9.10
2022-10-26T22:13:25.647Z,8.63
2022-10-26T22:16:12.982Z,8.80
2022-10-26T22:18:41.263Z,8.88
2022-10-26T22:21:08.977Z,7.85
2022-10-26T22:23:38.506Z,8.27
2022-10-26T22:26:06.875Z,8.48
2022-10-26T22:28:38.578Z,8.32
2022-10-26T22:31:12.708Z,7.93
2022-10-26T22:33:39.674Z,8.00
2022-10-26T22:36:08.984Z,7.70
2022-10-26T22:38:35.931Z,7.60
2022-10-26T22:41:02.854Z,7.53
2022-10-26T22:43:29.582Z,6.78
2022-10-26T22:46:09.709Z,6.30
2022-10-26T22:48:37.032Z,6.78
2022-10-26T22:51:12.108Z,6.80
2022-10-26T22:53:38.932Z,6.18
2022-10-26T22:56:07.706Z,6.90
2022-10-26T22:58:35.770Z,6.35
2022-10-26T23:01:03.973Z,6.05
2022-10-26T23:03:30.599Z,5.47
2022-10-26T23:05:57.887Z,5.80
2022-10-26T23:08:24.609Z,6.47
2022-10-26T23:10:51.250Z,5.78
2022-10-26T23:13:18.046Z,5.95
2022-10-26T23:15:44.705Z,5.22
2022-10-26T23:18:11.356Z,5.32
2022-10-26T23:20:37.884Z,5.40
2022-10-26T23:23:04.534Z,5.78
2022-10-26T23:25:31.459Z,5.32
2022-10-26T23:27:57.984Z,5.45
2022-10-26T23:30:24.564Z,5.65
2022-10-26T23:32:51.574Z,5.72
2022-10-26T23:35:18.778Z,5.22
2022-10-26T23:37:45.328Z,6.03
2022-10-26T23:40:12.283Z,6.53
2022-10-26T23:42:38.925Z,6.57
2022-10-26T23:45:05.931Z,6.85
2022-10-26T23:47:32.460Z,6.22
2022-10-26T23:49:58.980Z,7.07
2022-10-26T23:52:25.532Z,7.13
2022-10-26T23:54:52.260Z,6.75
2022-10-26T23:57:18.804Z,6.72
2022-10-26T23:59:45.375Z,6.47
